Time;durP1;ratioP1;P1;durP2;ratioP2;P2;SDS_P1;SDS_P2;PMS_P1;PMS_P2;Temp;Humidity;BMP_temperature;BMP_pressure;BME280_temperature;BME280_humidity;BME280_pressure;Samples;Min_cycle;Max_cycle;Signal;HPM_P1;HPM_P2
2021/07/21 00:00:38;;;;;;;10.43;7.30;;;;;;;;;;5014925;28;20444;-72
2021/07/21 00:03:05;;;;;;;8.63;7.60;;;;;;;;;;5014912;28;20949;-72
2021/07/21 00:05:33;;;;;;;14.63;7.80;;;;;;;;;;5014537;28;20486;-72
2021/07/21 00:08:00;;;;;;;14.10;7.10;;;;;;;;;;5015092;28;20579;-72
2021/07/21 00:10:30;;;;;;;9.37;7.60;;;;;;;;;;5015139;28;20444;-72
2021/07/21 00:15:51;;;;;;;7.43;6.63;;;;;;;;;;5014991;28;20407;-72
2021/07/21 00:18:21;;;;;;;13.57;7.97;;;;;;;;;;5015127;28;20847;-72
2021/07/21 00:20:49;;;;;;;8.90;8.00;;;;;;;;;;5014566;28;20453;-71
2021/07/21 00:23:16;;;;;;;8.30;7.40;;;;;;;;;;5014539;28;20448;-71
2021/07/21 00:25:43;;;;;;;8.77;7.90;;;;;;;;;;5015214;28;20450;-71
2021/07/21 00:28:10;;;;;;;9.60;8.27;;;;;;;;;;5014165;28;20475;-70
2021/07/21 00:30:37;;;;;;;9.40;7.30;;;;;;;;;;5014355;28;20455;-71
2021/07/21 00:33:06;;;;;;;10.30;7.87;;;;;;;;;;5014725;28;20446;-70
2021/07/21 00:35:33;;;;;;;9.33;7.77;;;;;;;;;;5014714;28;20454;-71
2021/07/21 00:38:00;;;;;;;8.70;7.43;;;;;;;;;;5014648;28;20446;-72
2021/07/21 00:40:28;;;;;;;9.27;7.70;;;;;;;;;;5015073;28;20440;-71
2021/07/21 00:42:55;;;;;;;8.93;7.57;;;;;;;;;;5014251;28;20445;-71
2021/07/21 00:45:22;;;;;;;8.17;7.30;;;;;;;;;;5014868;28;20448;-71
2021/07/21 00:47:49;;;;;;;10.20;7.70;;;;;;;;;;5014074;28;21046;-71
2021/07/21 00:50:18;;;;;;;9.80;7.60;;;;;;;;;;5014362;28;20815;-71
2021/07/21 00:52:45;;;;;;;8.73;7.70;;;;;;;;;;5014374;28;20526;-71
2021/07/21 00:55:14;;;;;;;11.10;8.23;;;;;;;;;;5014350;28;20447;-72
2021/07/21 00:57:42;;;;;;;8.30;6.97;;;;;;;;;;5014502;28;20510;-71
2021/07/21 01:00:11;;;;;;;10.30;8.13;;;;;;;;;;5014571;28;20869;-72
2021/07/21 01:02:38;;;;;;;8.67;7.57;;;;;;;;;;5014171;28;20447;-71
2021/07/21 01:05:07;;;;;;;10.23;8.13;;;;;;;;;;5014452;28;20474;-71
2021/07/21 01:07:35;;;;;;;9.67;8.30;;;;;;;;;;5014065;28;20493;-71
2021/07/21 01:10:03;;;;;;;7.40;6.70;;;;;;;;;;5014475;28;20443;-71
2021/07/21 01:12:33;;;;;;;9.10;7.93;;;;;;;;;;5014193;28;20447;-71
2021/07/21 01:15:06;;;;;;;11.27;8.07;;;;;;;;;;5013978;28;20789;-71
2021/07/21 01:17:35;;;;;;;10.20;8.33;;;;;;;;;;5014375;28;20778;-71
2021/07/21 01:20:20;;;;;;;11.20;8.50;;;;;;;;;;5013954;28;20826;-71
2021/07/21 01:22:51;;;;;;;12.80;8.37;;;;;;;;;;5013714;28;20432;-71
2021/07/21 01:25:19;;;;;;;12.23;9.40;;;;;;;;;;5013918;28;20424;-71
2021/07/21 01:27:50;;;;;;;10.63;7.67;;;;;;;;;;5013476;28;20483;-71
2021/07/21 01:30:18;;;;;;;10.47;7.50;;;;;;;;;;5013949;28;20435;-72
2021/07/21 01:32:47;;;;;;;11.13;8.00;;;;;;;;;;5013935;28;20444;-72
2021/07/21 01:35:17;;;;;;;8.80;7.60;;;;;;;;;;5013650;28;20921;-72
2021/07/21 01:37:48;;;;;;;12.73;9.30;;;;;;;;;;5013470;28;20447;-72
2021/07/21 01:40:19;;;;;;;10.57;8.40;;;;;;;;;;5016506;28;20913;-72
2021/07/21 01:42:50;;;;;;;14.10;9.97;;;;;;;;;;5017583;28;20524;-72
2021/07/21 01:45:17;;;;;;;10.93;9.00;;;;;;;;;;5018813;28;20451;-72
2021/07/21 01:47:46;;;;;;;11.80;8.87;;;;;;;;;;5017776;28;20490;-72
2021/07/21 01:50:14;;;;;;;15.57;9.97;;;;;;;;;;5017422;28;20988;-72
2021/07/21 01:52:42;;;;;;;13.23;8.70;;;;;;;;;;5017421;28;21040;-72
2021/07/21 01:55:09;;;;;;;14.40;9.13;;;;;;;;;;5017298;28;20436;-72
2021/07/21 01:57:38;;;;;;;13.67;8.40;;;;;;;;;;5017744;28;20462;-72
2021/07/21 02:00:09;;;;;;;13.90;9.27;;;;;;;;;;5017095;28;20447;-72
2021/07/21 02:02:37;;;;;;;12.93;10.03;;;;;;;;;;5017497;28;20447;-72
2021/07/21 02:05:05;;;;;;;11.50;9.00;;;;;;;;;;5017308;28;20476;-72
2021/07/21 02:07:32;;;;;;;12.93;8.87;;;;;;;;;;5017277;28;20483;-73
2021/07/21 02:10:00;;;;;;;13.50;10.17;;;;;;;;;;5017040;28;20925;-73
2021/07/21 02:12:28;;;;;;;11.50;9.07;;;;;;;;;;5017262;28;20469;-73
2021/07/21 02:14:55;;;;;;;14.63;9.80;;;;;;;;;;5017304;28;20550;-73
2021/07/21 02:17:25;;;;;;;13.47;9.33;;;;;;;;;;5017189;28;20442;-73
2021/07/21 02:19:52;;;;;;;16.50;10.13;;;;;;;;;;5016890;28;20451;-73
2021/07/21 02:22:20;;;;;;;13.93;9.10;;;;;;;;;;5017447;28;20444;-73
2021/07/21 02:24:47;;;;;;;12.47;9.47;;;;;;;;;;5017468;28;20775;-73
2021/07/21 02:27:15;;;;;;;16.47;10.60;;;;;;;;;;5017000;28;20440;-74
2021/07/21 02:29:42;;;;;;;13.03;9.97;;;;;;;;;;5016608;28;20445;-74
2021/07/21 02:32:12;;;;;;;14.17;10.27;;;;;;;;;;5017503;28;20439;-73
2021/07/21 02:34:40;;;;;;;14.73;9.73;;;;;;;;;;5017467;28;20450;-73
2021/07/21 02:37:08;;;;;;;12.00;9.77;;;;;;;;;;5016855;28;20439;-73
2021/07/21 02:39:35;;;;;;;12.87;10.33;;;;;;;;;;5016807;28;20529;-74
2021/07/21 02:42:02;;;;;;;11.97;9.30;;;;;;;;;;5017251;28;20436;-73
2021/07/21 02:44:29;;;;;;;13.07;10.03;;;;;;;;;;5016971;28;20486;-74
2021/07/21 02:46:57;;;;;;;13.50;10.30;;;;;;;;;;5016433;28;20445;-73
2021/07/21 02:49:24;;;;;;;11.97;10.07;;;;;;;;;;5016872;28;20897;-74
2021/07/21 02:51:54;;;;;;;17.07;10.30;;;;;;;;;;5016208;28;20451;-74
2021/07/21 02:54:28;;;;;;;14.33;11.00;;;;;;;;;;5016963;28;20464;-74
2021/07/21 02:56:57;;;;;;;13.20;10.60;;;;;;;;;;5016749;28;20448;-74
2021/07/21 02:59:31;;;;;;;14.73;10.23;;;;;;;;;;5016444;28;20870;-75
2021/07/21 03:02:01;;;;;;;19.67;11.03;;;;;;;;;;5016540;28;20930;-75
2021/07/21 03:04:29;;;;;;;16.30;10.03;;;;;;;;;;5016578;28;20458;-74
2021/07/21 03:06:58;;;;;;;15.67;9.30;;;;;;;;;;5016058;28;20905;-74
2021/07/21 03:09:26;;;;;;;12.93;9.67;;;;;;;;;;5015854;28;20483;-75
2021/07/21 03:11:55;;;;;;;17.60;10.20;;;;;;;;;;5016752;28;20458;-75
2021/07/21 03:14:23;;;;;;;11.00;9.80;;;;;;;;;;5016176;28;20789;-74
2021/07/21 03:16:52;;;;;;;11.27;9.10;;;;;;;;;;5016131;28;20450;-74
2021/07/21 03:19:23;;;;;;;11.63;9.60;;;;;;;;;;5016089;28;20781;-74
2021/07/21 03:21:51;;;;;;;15.03;11.07;;;;;;;;;;5016763;28;20944;-74
2021/07/21 03:24:21;;;;;;;21.50;9.90;;;;;;;;;;5015657;28;20947;-74
2021/07/21 03:26:50;;;;;;;13.00;10.70;;;;;;;;;;5015796;28;20443;-74
2021/07/21 03:29:17;;;;;;;14.37;11.13;;;;;;;;;;5015851;28;20511;-74
2021/07/21 03:31:45;;;;;;;12.83;9.97;;;;;;;;;;5015569;28;20938;-74
2021/07/21 03:34:13;;;;;;;17.57;11.90;;;;;;;;;;5015511;28;20447;-74
2021/07/21 03:36:42;;;;;;;13.80;10.57;;;;;;;;;;5015752;28;20521;-74
2021/07/21 03:39:11;;;;;;;15.47;9.60;;;;;;;;;;5015657;28;20447;-74
2021/07/21 03:41:40;;;;;;;13.67;10.13;;;;;;;;;;5016198;28;20459;-75
2021/07/21 03:44:09;;;;;;;17.87;10.33;;;;;;;;;;5015613;28;20530;-73
2021/07/21 03:46:37;;;;;;;14.30;11.00;;;;;;;;;;5015345;28;20470;-75
2021/07/21 03:49:05;;;;;;;16.80;11.40;;;;;;;;;;5015497;28;20841;-74
2021/07/21 03:51:32;;;;;;;14.60;10.73;;;;;;;;;;5015155;28;20539;-76
2021/07/21 03:54:00;;;;;;;14.03;10.60;;;;;;;;;;5015313;28;20883;-76
2021/07/21 03:56:28;;;;;;;15.90;11.70;;;;;;;;;;5015439;28;20794;-76
2021/07/21 03:58:57;;;;;;;17.47;11.97;;;;;;;;;;5014995;28;20447;-76
2021/07/21 04:01:24;;;;;;;13.97;10.63;;;;;;;;;;5015080;28;20439;-78
2021/07/21 04:03:53;;;;;;;15.53;10.47;;;;;;;;;;5015066;28;20489;-75
2021/07/21 04:06:21;;;;;;;13.30;10.70;;;;;;;;;;5015690;28;20569;-78
2021/07/21 04:08:49;;;;;;;14.10;10.07;;;;;;;;;;5014823;28;20493;-75
2021/07/21 04:11:17;;;;;;;14.40;11.30;;;;;;;;;;5014837;28;20455;-75
2021/07/21 04:13:44;;;;;;;14.53;10.30;;;;;;;;;;5015548;28;20443;-78
2021/07/21 04:16:14;;;;;;;13.63;11.10;;;;;;;;;;5014953;28;20443;-79
2021/07/21 04:18:42;;;;;;;17.30;11.00;;;;;;;;;;5012102;28;20813;-79
2021/07/21 04:21:10;;;;;;;14.30;10.00;;;;;;;;;;5003577;28;20958;-79
2021/07/21 04:23:40;;;;;;;17.30;11.53;;;;;;;;;;4995156;28;20526;-78
2021/07/21 04:26:07;;;;;;;20.00;12.60;;;;;;;;;;4995106;28;20440;-79
2021/07/21 04:28:34;;;;;;;17.20;11.10;;;;;;;;;;4994819;28;20492;-79
2021/07/21 04:31:02;;;;;;;18.27;10.30;;;;;;;;;;4994869;28;20540;-78
2021/07/21 04:33:31;;;;;;;20.97;10.60;;;;;;;;;;4995137;28;20533;-77
2021/07/21 04:35:58;;;;;;;14.07;11.07;;;;;;;;;;4994757;28;20448;-80
2021/07/21 04:38:25;;;;;;;13.27;9.93;;;;;;;;;;4994813;28;20950;-79
2021/07/21 04:40:53;;;;;;;11.93;10.60;;;;;;;;;;4994977;28;20448;-78
2021/07/21 04:43:21;;;;;;;15.13;9.70;;;;;;;;;;4994963;28;20498;-79
2021/07/21 04:45:50;;;;;;;15.50;11.17;;;;;;;;;;4994608;28;20453;-78
2021/07/21 04:48:18;;;;;;;14.27;10.17;;;;;;;;;;4997340;28;20487;-77
2021/07/21 04:50:47;;;;;;;13.10;10.60;;;;;;;;;;5014412;28;20860;-77
2021/07/21 04:53:15;;;;;;;15.17;11.23;;;;;;;;;;5014504;28;20533;-77
2021/07/21 04:55:43;;;;;;;14.30;11.23;;;;;;;;;;5014574;28;20967;-77
2021/07/21 04:58:10;;;;;;;12.73;10.60;;;;;;;;;;5014108;28;20454;-78
2021/07/21 05:00:38;;;;;;;16.10;11.70;;;;;;;;;;5014482;28;20452;-79
2021/07/21 05:03:06;;;;;;;14.13;11.40;;;;;;;;;;5013922;28;20534;-77
2021/07/21 05:05:34;;;;;;;14.87;10.90;;;;;;;;;;5014306;28;20989;-78
2021/07/21 05:08:02;;;;;;;14.70;10.97;;;;;;;;;;5014009;28;20534;-78
2021/07/21 05:10:30;;;;;;;15.20;11.60;;;;;;;;;;5013867;28;20972;-77
2021/07/21 05:12:58;;;;;;;16.33;10.20;;;;;;;;;;5013446;28;20961;-78
2021/07/21 05:15:25;;;;;;;18.17;10.77;;;;;;;;;;5013612;28;20446;-78
2021/07/21 05:17:52;;;;;;;13.03;10.10;;;;;;;;;;5013909;28;20452;-79
2021/07/21 05:20:20;;;;;;;13.70;11.03;;;;;;;;;;5013855;28;20459;-77
2021/07/21 05:22:47;;;;;;;13.63;10.83;;;;;;;;;;5013606;28;20498;-77
2021/07/21 05:25:16;;;;;;;12.13;10.60;;;;;;;;;;5014011;28;20862;-77
2021/07/21 05:27:43;;;;;;;14.00;10.40;;;;;;;;;;5013605;28;20538;-77
2021/07/21 05:30:11;;;;;;;13.10;10.53;;;;;;;;;;5013803;28;20490;-77
2021/07/21 05:32:38;;;;;;;12.93;9.70;;;;;;;;;;5013562;28;20478;-77
2021/07/21 05:35:07;;;;;;;12.47;9.37;;;;;;;;;;5013528;28;20462;-77
2021/07/21 05:37:34;;;;;;;11.50;10.10;;;;;;;;;;5013647;28;20942;-77
2021/07/21 05:40:02;;;;;;;18.10;11.93;;;;;;;;;;5013903;28;20444;-78
2021/07/21 05:42:30;;;;;;;13.40;11.13;;;;;;;;;;5013901;28;20542;-78
2021/07/21 05:44:57;;;;;;;14.13;10.03;;;;;;;;;;5013768;28;20450;-77
2021/07/21 05:47:25;;;;;;;12.80;9.57;;;;;;;;;;5013776;28;20448;-77
2021/07/21 05:49:52;;;;;;;15.40;9.70;;;;;;;;;;5013211;28;20479;-77
2021/07/21 05:52:19;;;;;;;13.77;9.57;;;;;;;;;;5013413;28;20947;-78
2021/07/21 05:54:46;;;;;;;16.43;10.00;;;;;;;;;;5013735;28;20440;-80
2021/07/21 05:57:13;;;;;;;17.53;9.60;;;;;;;;;;5013900;28;20795;-78
2021/07/21 05:59:42;;;;;;;16.03;9.97;;;;;;;;;;5013716;28;20793;-79
2021/07/21 06:02:09;;;;;;;14.50;10.00;;;;;;;;;;5013660;28;20480;-78
2021/07/21 06:04:36;;;;;;;10.63;8.63;;;;;;;;;;5013471;28;20559;-70
2021/07/21 06:07:06;;;;;;;13.90;9.70;;;;;;;;;;5014001;28;20436;-75
2021/07/21 06:09:34;;;;;;;15.50;10.37;;;;;;;;;;5013156;28;20534;-75
2021/07/21 06:12:01;;;;;;;12.80;10.00;;;;;;;;;;5013541;28;20461;-75
2021/07/21 06:14:29;;;;;;;13.40;10.47;;;;;;;;;;5013250;28;20540;-74
2021/07/21 06:16:57;;;;;;;14.17;12.00;;;;;;;;;;5013375;28;20455;-74
2021/07/21 06:19:25;;;;;;;15.80;10.80;;;;;;;;;;5013188;28;20459;-75
2021/07/21 06:21:52;;;;;;;13.43;9.37;;;;;;;;;;5013144;28;20961;-74
2021/07/21 06:24:19;;;;;;;15.90;9.97;;;;;;;;;;5013400;28;20536;-74
2021/07/21 06:26:46;;;;;;;15.30;11.70;;;;;;;;;;5017279;28;20445;-75
2021/07/21 06:29:14;;;;;;;37.37;20.20;;;;;;;;;;5016911;28;20488;-74
2021/07/21 06:31:41;;;;;;;21.90;12.20;;;;;;;;;;5016660;28;20535;-71
2021/07/21 06:34:09;;;;;;;14.43;10.10;;;;;;;;;;5017274;28;20458;-71
2021/07/21 06:36:37;;;;;;;20.70;10.50;;;;;;;;;;5016627;28;21015;-72
2021/07/21 06:39:04;;;;;;;16.50;10.53;;;;;;;;;;5016776;28;20536;-72
2021/07/21 06:41:32;;;;;;;16.50;10.90;;;;;;;;;;5016413;28;20953;-72
2021/07/21 06:44:00;;;;;;;15.60;10.90;;;;;;;;;;5016321;28;20532;-72
2021/07/21 06:46:28;;;;;;;13.43;9.37;;;;;;;;;;5016826;28;20445;-72
2021/07/21 06:48:55;;;;;;;15.43;8.97;;;;;;;;;;5016492;28;20836;-73
2021/07/21 06:51:24;;;;;;;11.67;8.10;;;;;;;;;;5016527;28;20445;-82
2021/07/21 06:53:51;;;;;;;13.87;9.30;;;;;;;;;;5016723;28;20452;-69
2021/07/21 06:56:18;;;;;;;15.67;8.93;;;;;;;;;;5016468;28;20437;-70
2021/07/21 06:58:46;;;;;;;17.20;9.83;;;;;;;;;;5016718;28;20526;-75
2021/07/21 07:01:14;;;;;;;13.00;9.67;;;;;;;;;;5016093;28;20446;-73
2021/07/21 07:03:42;;;;;;;14.13;8.00;;;;;;;;;;5015809;28;20444;-75
2021/07/21 07:06:10;;;;;;;14.80;8.73;;;;;;;;;;5016219;28;20575;-75
2021/07/21 07:08:39;;;;;;;18.70;10.80;;;;;;;;;;5015890;28;21010;-75
2021/07/21 07:11:06;;;;;;;13.83;10.87;;;;;;;;;;5015842;28;20953;-75
2021/07/21 07:13:33;;;;;;;11.60;9.23;;;;;;;;;;5016435;28;20531;-74
2021/07/21 07:16:01;;;;;;;13.70;9.00;;;;;;;;;;5016023;28;20451;-74
2021/07/21 07:18:28;;;;;;;15.23;10.20;;;;;;;;;;5015947;28;20519;-75
2021/07/21 07:20:56;;;;;;;13.23;10.20;;;;;;;;;;5015745;28;20951;-75
2021/07/21 07:23:24;;;;;;;24.97;13.03;;;;;;;;;;5016059;28;20445;-75
2021/07/21 07:25:52;;;;;;;16.47;10.27;;;;;;;;;;5015595;28;20460;-75
2021/07/21 07:28:19;;;;;;;13.07;10.53;;;;;;;;;;5015580;28;20959;-75
2021/07/21 07:30:47;;;;;;;13.97;10.37;;;;;;;;;;5015430;28;20484;-75
2021/07/21 07:33:14;;;;;;;16.57;9.37;;;;;;;;;;5015891;28;20582;-75
2021/07/21 07:35:41;;;;;;;10.77;8.53;;;;;;;;;;5015417;28;20538;-75
2021/07/21 07:38:11;;;;;;;11.27;8.63;;;;;;;;;;5014935;28;20474;-76
2021/07/21 07:40:38;;;;;;;13.23;9.00;;;;;;;;;;5016099;28;20941;-75
2021/07/21 07:43:07;;;;;;;10.73;8.03;;;;;;;;;;5015623;28;20452;-75
2021/07/21 07:45:44;;;;;;;18.83;9.20;;;;;;;;;;5015204;28;20530;-75
2021/07/21 07:48:11;;;;;;;12.70;8.67;;;;;;;;;;5015553;28;20466;-75
2021/07/21 07:50:38;;;;;;;12.47;8.50;;;;;;;;;;5015392;28;20485;-75
2021/07/21 07:53:05;;;;;;;12.37;8.30;;;;;;;;;;5015449;28;20455;-74
2021/07/21 07:55:39;;;;;;;11.03;9.23;;;;;;;;;;5015443;28;20483;-75
2021/07/21 07:58:07;;;;;;;13.73;9.37;;;;;;;;;;5015897;28;20808;-75
2021/07/21 08:00:35;;;;;;;11.47;7.80;;;;;;;;;;5015435;28;20453;-74
2021/07/21 08:03:02;;;;;;;14.47;8.00;;;;;;;;;;5014780;28;20450;-74
2021/07/21 08:05:29;;;;;;;10.43;8.30;;;;;;;;;;5015558;28;20567;-75
2021/07/21 08:07:57;;;;;;;9.37;8.03;;;;;;;;;;5014567;28;20450;-75
2021/07/21 08:10:24;;;;;;;9.70;7.60;;;;;;;;;;5015037;28;20975;-74
2021/07/21 08:12:52;;;;;;;12.57;8.83;;;;;;;;;;5014685;28;20546;-74
2021/07/21 08:15:20;;;;;;;9.33;8.20;;;;;;;;;;5014677;28;20454;-75
2021/07/21 08:17:48;;;;;;;13.20;8.80;;;;;;;;;;5014880;28;20508;-74
2021/07/21 08:20:15;;;;;;;9.97;8.50;;;;;;;;;;5015149;28;20487;-74
2021/07/21 08:22:42;;;;;;;9.57;8.57;;;;;;;;;;5015208;28;20450;-74
2021/07/21 08:25:20;;;;;;;12.10;7.67;;;;;;;;;;5014553;28;20553;-74
2021/07/21 08:27:56;;;;;;;10.50;7.77;;;;;;;;;;5014200;28;20441;-74
2021/07/21 08:30:25;;;;;;;9.20;7.40;;;;;;;;;;5014317;28;20463;-74
2021/07/21 08:32:53;;;;;;;9.60;7.20;;;;;;;;;;5014525;28;20538;-74
2021/07/21 08:35:21;;;;;;;10.20;7.73;;;;;;;;;;5014828;28;20546;-75
2021/07/21 08:37:48;;;;;;;8.70;6.40;;;;;;;;;;5014163;28;20451;-74
2021/07/21 08:40:16;;;;;;;7.23;6.43;;;;;;;;;;5014413;28;20446;-74
2021/07/21 08:42:43;;;;;;;12.03;7.43;;;;;;;;;;5014274;28;20522;-74
2021/07/21 08:45:11;;;;;;;10.57;7.30;;;;;;;;;;5013960;28;20457;-74
2021/07/21 08:47:40;;;;;;;8.57;7.67;;;;;;;;;;5013884;28;20451;-75
2021/07/21 08:50:08;;;;;;;12.60;7.17;;;;;;;;;;5014116;28;20482;-74
2021/07/21 08:52:35;;;;;;;11.47;9.23;;;;;;;;;;5014359;28;20801;-73
2021/07/21 08:55:03;;;;;;;13.23;8.80;;;;;;;;;;5014387;28;20537;-75
2021/07/21 08:57:32;;;;;;;12.70;8.07;;;;;;;;;;5014214;28;20537;-74
2021/07/21 09:00:00;;;;;;;8.87;7.33;;;;;;;;;;5014084;28;20482;-76
2021/07/21 09:02:28;;;;;;;11.03;6.80;;;;;;;;;;5013843;28;20482;-75
2021/07/21 09:04:58;;;;;;;10.60;7.80;;;;;;;;;;5013946;28;20569;-74
2021/07/21 09:07:25;;;;;;;15.43;8.10;;;;;;;;;;5014264;28;20615;-74
2021/07/21 09:09:53;;;;;;;9.33;8.17;;;;;;;;;;5011541;28;20479;-67
2021/07/21 09:12:20;;;;;;;11.47;8.23;;;;;;;;;;5002839;28;20581;-72
2021/07/21 09:14:47;;;;;;;11.07;8.33;;;;;;;;;;4994412;28;20477;-71
2021/07/21 09:17:15;;;;;;;9.20;7.60;;;;;;;;;;4993647;28;20451;-68
2021/07/21 09:19:43;;;;;;;8.27;7.43;;;;;;;;;;4993757;28;20443;-68
2021/07/21 09:22:16;;;;;;;9.30;7.87;;;;;;;;;;4994085;28;20477;-71
2021/07/21 09:24:43;;;;;;;13.23;8.70;;;;;;;;;;4993927;28;20446;-69
2021/07/21 09:27:11;;;;;;;10.23;8.43;;;;;;;;;;5002151;28;20826;-69
2021/07/21 09:29:40;;;;;;;11.70;7.87;;;;;;;;;;5013372;28;20455;-69
2021/07/21 09:32:08;;;;;;;10.50;8.67;;;;;;;;;;5013834;28;20454;-69
2021/07/21 09:34:35;;;;;;;11.60;9.53;;;;;;;;;;5013137;28;20454;-69
2021/07/21 09:37:03;;;;;;;12.00;9.80;;;;;;;;;;5013181;28;20445;-68
2021/07/21 09:39:38;;;;;;;9.40;8.00;;;;;;;;;;5013079;28;20453;-82
2021/07/21 09:42:06;;;;;;;12.00;8.10;;;;;;;;;;5013167;28;20454;-77
2021/07/21 09:44:34;;;;;;;9.97;7.67;;;;;;;;;;5011152;28;20442;-67
2021/07/21 09:47:15;;;;;;;9.70;8.07;;;;;;;;;;5013366;28;20447;-70
2021/07/21 09:49:43;;;;;;;12.63;8.27;;;;;;;;;;5013541;28;20482;-80
2021/07/21 09:52:21;;;;;;;11.87;8.80;;;;;;;;;;5012977;28;20496;-70
2021/07/21 09:55:06;;;;;;;13.83;8.50;;;;;;;;;;5013385;28;20492;-70
2021/07/21 09:57:37;;;;;;;10.93;8.37;;;;;;;;;;5013677;28;20455;-71
2021/07/21 10:00:20;;;;;;;11.77;9.00;;;;;;;;;;5013418;28;20531;-71
2021/07/21 10:02:48;;;;;;;11.53;8.77;;;;;;;;;;5016968;28;20427;-70
2021/07/21 10:05:15;;;;;;;13.30;10.07;;;;;;;;;;5016251;28;20467;-70
2021/07/21 10:07:51;;;;;;;10.77;9.10;;;;;;;;;;5016515;28;20481;-71
2021/07/21 10:10:22;;;;;;;12.90;9.20;;;;;;;;;;5016377;28;20470;-69
2021/07/21 10:13:02;;;;;;;11.20;9.60;;;;;;;;;;5016540;28;20939;-70
2021/07/21 10:15:29;;;;;;;10.27;8.23;;;;;;;;;;5016499;28;20916;-70
2021/07/21 10:18:10;;;;;;;13.17;8.70;;;;;;;;;;5016584;28;20451;-70
2021/07/21 10:20:38;;;;;;;9.53;8.40;;;;;;;;;;5017006;28;20829;-69
2021/07/21 10:23:05;;;;;;;16.33;9.97;;;;;;;;;;5016658;28;20976;-69
2021/07/21 10:25:33;;;;;;;12.60;9.10;;;;;;;;;;5015572;28;20546;-70
2021/07/21 10:28:01;;;;;;;11.63;8.40;;;;;;;;;;5016767;28;20805;-72
2021/07/21 10:30:30;;;;;;;9.50;8.03;;;;;;;;;;5016593;28;20566;-73
2021/07/21 10:32:58;;;;;;;10.17;9.10;;;;;;;;;;5016203;28;20455;-74
2021/07/21 10:35:27;;;;;;;11.20;9.17;;;;;;;;;;5016389;28;20546;-72
2021/07/21 10:37:55;;;;;;;11.43;9.13;;;;;;;;;;5016766;28;20446;-71
2021/07/21 10:40:23;;;;;;;10.53;8.77;;;;;;;;;;5016787;28;20524;-78
2021/07/21 10:42:54;;;;;;;12.80;8.00;;;;;;;;;;5016804;28;20447;-76
2021/07/21 10:45:22;;;;;;;9.07;7.43;;;;;;;;;;5017185;28;20471;-76
2021/07/21 10:50:51;;;;;;;9.20;8.20;;;;;;;;;;5019266;28;20554;-74
2021/07/21 10:53:31;;;;;;;13.83;9.20;;;;;;;;;;5016951;28;20785;-75
2021/07/21 10:59:12;;;;;;;11.80;8.57;;;;;;;;;;5016129;28;20428;-76
2021/07/21 11:01:40;;;;;;;11.47;8.90;;;;;;;;;;5015969;28;20437;-71
2021/07/21 11:04:07;;;;;;;11.80;9.83;;;;;;;;;;5016589;28;20530;-71
2021/07/21 11:06:38;;;;;;;12.63;8.80;;;;;;;;;;5016308;28;20555;-71
2021/07/21 11:09:15;;;;;;;14.30;8.93;;;;;;;;;;5015942;28;20527;-71
2021/07/21 11:11:42;;;;;;;12.30;10.00;;;;;;;;;;5014191;28;20482;-71
2021/07/21 11:14:16;;;;;;;10.23;8.57;;;;;;;;;;5015671;28;20441;-71
2021/07/21 11:16:46;;;;;;;11.23;8.50;;;;;;;;;;5016094;28;20790;-71
2021/07/21 11:19:40;;;;;;;11.77;8.37;;;;;;;;;;5015667;28;20445;-71
2021/07/21 11:22:09;;;;;;;11.07;8.80;;;;;;;;;;4992036;28;20464;-71
2021/07/21 11:24:54;;;;;;;11.30;9.70;;;;;;;;;;5015314;28;20455;-75
2021/07/21 11:27:36;;;;;;;12.37;9.87;;;;;;;;;;5015319;28;20447;-77
2021/07/21 11:30:05;;;;;;;10.27;8.57;;;;;;;;;;5016093;28;20865;-71
2021/07/21 11:32:32;;;;;;;12.47;9.93;;;;;;;;;;5016227;28;20453;-70
2021/07/21 11:35:00;;;;;;;14.97;10.30;;;;;;;;;;5015424;28;20473;-72
2021/07/21 11:37:35;;;;;;;11.67;10.47;;;;;;;;;;5012123;28;20437;-72
2021/07/21 11:40:15;;;;;;;10.47;9.27;;;;;;;;;;5001684;28;20528;-72
2021/07/21 11:42:42;;;;;;;11.10;10.00;;;;;;;;;;5005797;28;20433;-72
2021/07/21 11:45:18;;;;;;;11.53;9.47;;;;;;;;;;4998572;28;20478;-73
2021/07/21 11:47:47;;;;;;;12.33;9.13;;;;;;;;;;5006552;28;20439;-72
2021/07/21 11:50:16;;;;;;;11.80;8.70;;;;;;;;;;5015745;28;20450;-72
2021/07/21 11:52:44;;;;;;;10.47;8.50;;;;;;;;;;5015226;28;20818;-72
2021/07/21 11:55:13;;;;;;;12.13;9.57;;;;;;;;;;5015663;28;20545;-70
2021/07/21 11:57:42;;;;;;;11.00;8.50;;;;;;;;;;5015468;28;20450;-74
2021/07/21 12:00:09;;;;;;;11.80;9.20;;;;;;;;;;5015417;28;20503;-76
2021/07/21 12:02:38;;;;;;;12.00;9.37;;;;;;;;;;5014996;28;20453;-68
2021/07/21 12:05:06;;;;;;;12.17;9.30;;;;;;;;;;5015114;28;20478;-68
2021/07/21 12:07:35;;;;;;;9.00;8.10;;;;;;;;;;5014904;28;20510;-71
2021/07/21 12:10:09;;;;;;;12.63;9.70;;;;;;;;;;5015201;28;20485;-77
2021/07/21 12:12:37;;;;;;;10.80;9.10;;;;;;;;;;5015497;28;20564;-77
2021/07/21 12:15:05;;;;;;;10.73;9.17;;;;;;;;;;5015054;28;20996;-77
2021/07/21 12:17:32;;;;;;;14.10;9.63;;;;;;;;;;5014740;28;20449;-77
2021/07/21 12:20:02;;;;;;;12.10;9.70;;;;;;;;;;5014917;28;20441;-77
2021/07/21 12:22:30;;;;;;;8.83;7.93;;;;;;;;;;5014598;28;20856;-77
2021/07/21 12:24:59;;;;;;;12.10;9.13;;;;;;;;;;5014785;28;20559;-77
2021/07/21 12:27:31;;;;;;;12.70;9.17;;;;;;;;;;5014829;28;20481;-77
2021/07/21 12:29:59;;;;;;;10.67;9.07;;;;;;;;;;5014658;28;20530;-76
2021/07/21 12:32:26;;;;;;;10.87;8.73;;;;;;;;;;5014985;28;20485;-76
2021/07/21 12:34:55;;;;;;;10.17;9.07;;;;;;;;;;5014625;28;20458;-76
2021/07/21 12:37:24;;;;;;;9.80;8.10;;;;;;;;;;5014649;28;20534;-76
2021/07/21 12:39:53;;;;;;;12.17;9.70;;;;;;;;;;5014243;28;20956;-76
2021/07/21 12:42:21;;;;;;;12.13;9.27;;;;;;;;;;5014546;28;20447;-75
2021/07/21 12:44:49;;;;;;;13.20;9.60;;;;;;;;;;5014178;28;20457;-75
2021/07/21 12:47:17;;;;;;;10.27;8.37;;;;;;;;;;5014049;28;20453;-75
2021/07/21 12:49:46;;;;;;;11.83;8.90;;;;;;;;;;5014275;28;20530;-75
2021/07/21 12:52:14;;;;;;;11.10;9.40;;;;;;;;;;5014195;28;20480;-75
2021/07/21 12:54:47;;;;;;;8.97;8.07;;;;;;;;;;5014164;28;20448;-75
2021/07/21 12:57:14;;;;;;;11.70;9.63;;;;;;;;;;5014295;28;20791;-75
2021/07/21 12:59:41;;;;;;;11.50;8.37;;;;;;;;;;5014068;28;20531;-75
2021/07/21 13:02:10;;;;;;;14.87;9.27;;;;;;;;;;5014287;28;20444;-75
2021/07/21 13:04:37;;;;;;;10.60;8.90;;;;;;;;;;5013755;28;20556;-75
2021/07/21 13:07:05;;;;;;;11.20;9.03;;;;;;;;;;5013821;28;20434;-75
2021/07/21 13:09:32;;;;;;;10.33;9.13;;;;;;;;;;5014072;28;20535;-75
2021/07/21 13:12:01;;;;;;;9.87;8.87;;;;;;;;;;5014544;28;20488;-75
2021/07/21 13:14:28;;;;;;;10.00;8.70;;;;;;;;;;5014865;28;20466;-75
2021/07/21 13:16:56;;;;;;;24.27;9.93;;;;;;;;;;5013526;28;20482;-75
2021/07/21 13:19:31;;;;;;;10.80;9.33;;;;;;;;;;5013398;28;20453;-75
2021/07/21 13:21:59;;;;;;;13.50;9.10;;;;;;;;;;5013993;28;20773;-75
2021/07/21 13:24:29;;;;;;;13.23;9.23;;;;;;;;;;5013912;28;20499;-74
2021/07/21 13:26:57;;;;;;;11.10;8.80;;;;;;;;;;5014201;28;20527;-75
2021/07/21 13:29:28;;;;;;;11.87;9.20;;;;;;;;;;5013565;28;20808;-76
2021/07/21 13:31:55;;;;;;;13.07;9.17;;;;;;;;;;5013297;28;21057;-76
2021/07/21 13:34:24;;;;;;;12.47;8.73;;;;;;;;;;5013184;28;20441;-76
2021/07/21 13:36:52;;;;;;;12.10;8.73;;;;;;;;;;5013760;28;20529;-76
2021/07/21 13:39:22;;;;;;;9.73;8.80;;;;;;;;;;5011716;28;20456;-74
2021/07/21 13:41:52;;;;;;;11.57;9.43;;;;;;;;;;5002782;28;20905;-73
2021/07/21 13:44:20;;;;;;;11.50;9.30;;;;;;;;;;5013235;28;20451;-74
2021/07/21 13:46:49;;;;;;;10.23;9.23;;;;;;;;;;4995607;28;20931;-74
2021/07/21 13:49:17;;;;;;;9.77;8.33;;;;;;;;;;4994107;28;20442;-75
2021/07/21 13:51:45;;;;;;;11.70;10.20;;;;;;;;;;4994157;28;20562;-75
2021/07/21 13:54:17;;;;;;;9.93;8.93;;;;;;;;;;4994062;28;20953;-72
2021/07/21 13:56:45;;;;;;;12.93;9.43;;;;;;;;;;4993767;28;20445;-75
2021/07/21 13:59:13;;;;;;;13.33;9.00;;;;;;;;;;4993702;28;20445;-72
2021/07/21 14:01:40;;;;;;;13.87;10.47;;;;;;;;;;4993548;28;20472;-72
2021/07/21 14:04:09;;;;;;;14.53;11.43;;;;;;;;;;4993972;28;20540;-71
2021/07/21 14:06:36;;;;;;;11.80;9.07;;;;;;;;;;4994188;28;20516;-71
2021/07/21 14:09:05;;;;;;;11.60;9.83;;;;;;;;;;4993925;28;20452;-71
2021/07/21 14:11:33;;;;;;;12.27;9.10;;;;;;;;;;5012830;28;20490;-71
2021/07/21 14:14:00;;;;;;;11.67;8.77;;;;;;;;;;5013053;28;20463;-71
2021/07/21 14:16:28;;;;;;;10.20;9.00;;;;;;;;;;5013907;28;20807;-71
2021/07/21 14:18:55;;;;;;;10.97;9.87;;;;;;;;;;5013456;28;21003;-71
2021/07/21 14:21:23;;;;;;;10.10;8.87;;;;;;;;;;5013755;28;20431;-72
2021/07/21 14:23:51;;;;;;;12.33;9.20;;;;;;;;;;5013307;28;20503;-71
2021/07/21 14:26:18;;;;;;;10.00;9.00;;;;;;;;;;5013347;28;20505;-71
2021/07/21 14:28:45;;;;;;;10.67;9.67;;;;;;;;;;5013057;28;20419;-71
2021/07/21 14:31:13;;;;;;;9.87;8.97;;;;;;;;;;5012966;28;20508;-70
2021/07/21 14:33:40;;;;;;;10.60;8.97;;;;;;;;;;5013213;28;20482;-71
2021/07/21 14:36:07;;;;;;;12.60;9.87;;;;;;;;;;5013264;28;20414;-70
2021/07/21 14:38:36;;;;;;;9.67;8.67;;;;;;;;;;5013533;28;20574;-70
2021/07/21 14:41:04;;;;;;;10.10;9.10;;;;;;;;;;5013009;28;20443;-70
2021/07/21 14:43:31;;;;;;;9.77;8.47;;;;;;;;;;5012852;28;20952;-70
2021/07/21 14:45:59;;;;;;;10.27;8.20;;;;;;;;;;5013807;28;20446;-70